createdAt,value
2019-06-15T00:00:00.312Z,0.97
2019-06-15T00:02:28.742Z,1.50
2019-06-15T00:04:57.212Z,1.10
2019-06-15T00:07:27.360Z,1.23
2019-06-15T00:09:55.766Z,1.70
2019-06-15T00:12:24.232Z,1.23
2019-06-15T00:14:52.642Z,1.43
2019-06-15T00:17:21.063Z,1.33
2019-06-15T00:19:49.513Z,1.30
2019-06-15T00:22:18.864Z,1.20
2019-06-15T00:24:47.296Z,1.40
2019-06-15T00:27:15.741Z,1.50
2019-06-15T00:29:44.176Z,1.63
2019-06-15T00:32:12.578Z,1.30
2019-06-15T00:34:41.034Z,1.37
2019-06-15T00:37:09.456Z,1.10
2019-06-15T00:39:37.877Z,1.60
2019-06-15T00:42:06.342Z,1.00
2019-06-15T00:44:34.754Z,0.80
2019-06-15T00:47:03.373Z,1.03
2019-06-15T00:49:32.024Z,0.80
2019-06-15T00:52:00.548Z,0.97
2019-06-15T00:54:28.962Z,1.20
2019-06-15T00:56:57.446Z,1.33
2019-06-15T00:59:25.882Z,1.23
2019-06-15T01:01:54.297Z,0.90
2019-06-15T01:04:22.749Z,1.13
2019-06-15T01:06:51.174Z,1.37
2019-06-15T01:09:19.661Z,1.53
2019-06-15T01:11:48.101Z,1.33
2019-06-15T01:14:16.528Z,1.37
2019-06-15T01:16:44.958Z,1.07
2019-06-15T01:19:13.422Z,2.00
2019-06-15T01:21:41.829Z,1.30
2019-06-15T01:24:10.242Z,1.50
2019-06-15T01:26:38.688Z,1.60
2019-06-15T01:29:07.105Z,1.53
2019-06-15T01:31:35.520Z,2.07
2019-06-15T01:34:03.958Z,2.10
2019-06-15T01:36:32.388Z,1.70
2019-06-15T01:39:00.815Z,1.60
2019-06-15T01:41:29.248Z,1.97
2019-06-15T01:43:57.663Z,1.50
2019-06-15T01:46:26.070Z,1.43
2019-06-15T01:48:54.533Z,1.57
2019-06-15T01:51:22.941Z,1.30
2019-06-15T01:53:51.362Z,1.50
2019-06-15T01:56:19.797Z,1.50
2019-06-15T01:58:48.208Z,1.60
2019-06-15T02:01:16.622Z,1.33
2019-06-15T02:03:45.090Z,1.40
2019-06-15T02:06:13.935Z,1.70
2019-06-15T02:08:42.353Z,1.20
2019-06-15T02:11:10.857Z,1.37
2019-06-15T02:13:39.250Z,1.43
2019-06-15T02:16:07.726Z,1.20
2019-06-15T02:18:36.113Z,1.80
2019-06-15T02:21:04.535Z,2.00
2019-06-15T02:23:32.954Z,1.60
2019-06-15T02:26:01.396Z,1.73
2019-06-15T02:28:29.819Z,1.30
2019-06-15T02:30:58.244Z,2.07
2019-06-15T02:33:26.680Z,1.90
2019-06-15T02:35:55.102Z,1.50
2019-06-15T02:38:23.532Z,1.77
2019-06-15T02:40:51.982Z,1.50
2019-06-15T02:43:20.427Z,1.53
2019-06-15T02:46:08.287Z,1.50
2019-06-15T02:48:36.710Z,1.20
2019-06-15T02:51:05.132Z,1.00
2019-06-15T02:53:33.587Z,1.20
2019-06-15T02:56:02.018Z,1.47
2019-06-15T02:58:30.437Z,1.20
2019-06-15T03:01:02.153Z,1.60
2019-06-15T03:03:30.589Z,1.43
2019-06-15T03:05:59.007Z,1.40
2019-06-15T03:08:27.453Z,1.20
2019-06-15T03:10:55.878Z,1.80
2019-06-15T03:13:24.293Z,1.43
2019-06-15T03:15:52.762Z,1.60
2019-06-15T03:18:21.178Z,1.43
2019-06-15T03:20:49.677Z,1.20
2019-06-15T03:23:18.125Z,1.50
2019-06-15T03:25:46.541Z,1.70
2019-06-15T03:28:14.951Z,2.17
2019-06-15T03:30:43.397Z,1.50
2019-06-15T03:33:11.814Z,1.67
2019-06-15T03:35:40.237Z,2.13
2019-06-15T03:38:08.677Z,1.60
2019-06-15T03:40:37.101Z,1.50
2019-06-15T03:43:05.530Z,1.20
2019-06-15T03:45:33.977Z,1.20
2019-06-15T03:48:02.411Z,1.60
2019-06-15T03:50:30.833Z,1.60
2019-06-15T03:52:59.277Z,1.43
2019-06-15T03:55:27.710Z,1.30
2019-06-15T03:57:56.118Z,2.37
2019-06-15T04:00:33.775Z,2.70
2019-06-15T04:03:02.237Z,2.00
2019-06-15T04:05:30.621Z,1.93
2019-06-15T04:07:59.076Z,1.70
2019-06-15T04:10:27.645Z,1.50
2019-06-15T04:12:56.055Z,1.30
2019-06-15T04:15:24.510Z,1.53
2019-06-15T04:17:52.925Z,1.80
2019-06-15T04:20:21.347Z,1.40
2019-06-15T04:22:49.825Z,1.80
2019-06-15T04:25:18.247Z,1.30
2019-06-15T04:27:46.699Z,1.47
2019-06-15T04:30:15.143Z,1.37
2019-06-15T04:32:43.573Z,1.67
2019-06-15T04:35:11.987Z,2.00
2019-06-15T04:37:40.454Z,1.60
2019-06-15T04:40:08.952Z,1.27
2019-06-15T04:42:37.356Z,1.43
2019-06-15T04:45:05.807Z,2.27
2019-06-15T04:47:34.235Z,1.27
2019-06-15T04:50:02.800Z,1.57
2019-06-15T04:52:31.274Z,1.73
2019-06-15T04:54:59.712Z,1.63
2019-06-15T04:57:28.120Z,1.50
2019-06-15T04:59:56.567Z,1.70
2019-06-15T05:02:27.276Z,1.50
2019-06-15T05:04:55.057Z,1.90
2019-06-15T05:07:23.498Z,2.00
2019-06-15T05:09:51.917Z,1.43
2019-06-15T05:12:20.349Z,1.90
2019-06-15T05:14:48.803Z,2.03
2019-06-15T05:17:17.495Z,1.80
2019-06-15T05:19:45.911Z,1.40
2019-06-15T05:22:14.373Z,1.50
2019-06-15T05:24:42.792Z,1.60
2019-06-15T05:27:11.199Z,1.63
2019-06-15T05:29:39.653Z,1.60
2019-06-15T05:32:08.094Z,1.87
2019-06-15T05:34:38.229Z,1.77
2019-06-15T05:37:06.677Z,1.73
2019-06-15T05:39:35.183Z,1.57
2019-06-15T05:42:03.600Z,1.40
2019-06-15T05:44:32.045Z,1.43
2019-06-15T05:47:00.491Z,1.73
2019-06-15T05:49:28.920Z,1.60
2019-06-15T05:51:57.375Z,1.60
2019-06-15T05:54:25.813Z,1.70
2019-06-15T05:56:54.229Z,1.17
2019-06-15T05:59:22.679Z,0.93
2019-06-15T06:01:51.127Z,1.60
2019-06-15T06:04:19.556Z,1.50
2019-06-15T06:06:47.996Z,1.20
2019-06-15T06:09:16.433Z,0.93
2019-06-15T06:11:44.860Z,2.03
2019-06-15T06:14:13.295Z,1.33
2019-06-15T06:16:41.729Z,1.57
2019-06-15T06:19:10.153Z,1.80
2019-06-15T06:21:51.504Z,1.73
2019-06-15T06:24:19.914Z,1.90
2019-06-15T06:26:48.344Z,1.77
2019-06-15T06:29:16.797Z,1.40
2019-06-15T06:31:45.216Z,1.53
2019-06-15T06:34:13.648Z,1.47
2019-06-15T06:36:42.088Z,1.53
2019-06-15T06:39:10.525Z,1.60
2019-06-15T06:41:38.940Z,1.80
2019-06-15T06:44:07.396Z,1.80
2019-06-15T06:46:35.847Z,1.50
2019-06-15T06:49:04.241Z,1.50
2019-06-15T06:51:32.712Z,1.27
2019-06-15T06:54:01.124Z,1.50
2019-06-15T06:56:29.578Z,1.40
2019-06-15T06:58:58.021Z,1.60
2019-06-15T07:01:26.807Z,1.50
2019-06-15T07:03:55.229Z,1.60
2019-06-15T07:06:23.769Z,1.17
2019-06-15T07:08:52.167Z,1.57
2019-06-15T07:11:20.590Z,1.30
2019-06-15T07:13:49.041Z,1.67
2019-06-15T07:16:17.455Z,1.47
2019-06-15T07:18:45.881Z,1.63
2019-06-15T07:21:14.328Z,1.67
2019-06-15T07:23:42.765Z,1.70
2019-06-15T07:26:11.183Z,1.30
2019-06-15T07:28:39.640Z,1.33
2019-06-15T07:31:08.133Z,1.70
2019-06-15T07:33:36.549Z,1.50
2019-06-15T07:36:05.007Z,1.20
2019-06-15T07:38:33.433Z,1.70
2019-06-15T07:41:01.844Z,1.37
2019-06-15T07:43:30.289Z,2.30
2019-06-15T07:45:58.710Z,1.30
2019-06-15T07:48:27.119Z,1.43
2019-06-15T07:50:55.569Z,1.43
2019-06-15T07:53:23.987Z,1.60
2019-06-15T07:55:52.411Z,1.30
2019-06-15T07:58:24.669Z,1.40
2019-06-15T08:00:50.928Z,1.20
2019-06-15T08:03:19.365Z,1.60
2019-06-15T08:05:47.825Z,1.37
2019-06-15T08:08:16.247Z,1.23
2019-06-15T08:10:44.677Z,1.60
2019-06-15T08:13:13.113Z,1.60
2019-06-15T08:15:41.532Z,1.40
2019-06-15T08:18:09.962Z,1.60
2019-06-15T08:20:39.344Z,1.60
2019-06-15T08:23:07.757Z,1.20
2019-06-15T08:25:36.175Z,1.33
2019-06-15T08:28:04.696Z,1.43
2019-06-15T08:30:41.552Z,1.43
2019-06-15T08:33:10.238Z,1.30
2019-06-15T08:35:38.652Z,1.50
2019-06-15T08:38:07.071Z,1.73
2019-06-15T08:40:35.534Z,1.60
2019-06-15T08:43:04.593Z,1.57
2019-06-15T08:45:33.079Z,1.33
2019-06-15T08:48:01.603Z,1.60
2019-06-15T08:50:29.951Z,1.50
2019-06-15T08:52:58.367Z,1.10
2019-06-15T08:55:26.820Z,1.37
2019-06-15T08:57:55.232Z,1.20
2019-06-15T09:00:23.665Z,1.43
2019-06-15T09:02:52.377Z,1.20
2019-06-15T09:05:20.810Z,1.50
2019-06-15T09:07:49.217Z,1.53
2019-06-15T09:10:17.697Z,1.70
2019-06-15T09:12:46.113Z,1.50
2019-06-15T09:15:14.591Z,1.67
2019-06-15T09:17:43.041Z,1.47
2019-06-15T09:20:11.608Z,1.23
2019-06-15T09:22:40.033Z,1.00
2019-06-15T09:25:08.630Z,1.40
2019-06-15T09:27:37.057Z,1.50
2019-06-15T09:30:06.328Z,0.90
2019-06-15T09:32:34.817Z,1.40
2019-06-15T09:35:04.191Z,1.57
2019-06-15T09:37:32.615Z,1.70
2019-06-15T09:40:01.128Z,1.97
2019-06-15T09:42:29.596Z,2.50
2019-06-15T09:44:58.024Z,2.83
2019-06-15T09:47:26.464Z,2.87
2019-06-15T09:49:54.884Z,3.03
2019-06-15T09:52:23.627Z,2.70
2019-06-15T09:54:52.078Z,2.60
2019-06-15T09:57:20.506Z,2.53
2019-06-15T09:59:48.923Z,3.00
2019-06-15T10:02:17.456Z,2.40
2019-06-15T10:04:45.872Z,2.60
2019-06-15T10:07:14.300Z,2.77
2019-06-15T10:09:42.771Z,3.40
2019-06-15T10:12:11.212Z,2.20
2019-06-15T10:14:39.630Z,2.30
2019-06-15T10:17:08.176Z,2.63
2019-06-15T10:19:36.607Z,2.90
2019-06-15T10:22:05.087Z,3.33
2019-06-15T10:24:33.558Z,3.33
2019-06-15T10:27:01.976Z,3.40
2019-06-15T10:29:41.553Z,3.83
2019-06-15T10:32:00.539Z,2.50
2019-06-15T10:34:28.958Z,2.67
2019-06-15T10:36:57.383Z,2.40
2019-06-15T10:39:25.857Z,3.40
2019-06-15T10:41:54.267Z,3.40
2019-06-15T10:44:22.696Z,2.70
2019-06-15T10:46:51.136Z,3.60
2019-06-15T10:49:19.561Z,3.67
2019-06-15T10:51:47.984Z,3.50
2019-06-15T10:54:16.447Z,3.70
2019-06-15T10:56:44.898Z,3.90
2019-06-15T10:59:13.974Z,3.23
2019-06-15T11:01:42.414Z,3.10
2019-06-15T11:04:10.847Z,3.43
2019-06-15T11:06:39.625Z,4.30
2019-06-15T11:09:08.198Z,2.23
2019-06-15T11:11:36.648Z,3.13
2019-06-15T11:14:05.127Z,3.33
2019-06-15T11:16:33.580Z,3.90
2019-06-15T11:19:02.015Z,3.70
2019-06-15T11:21:30.451Z,3.63
2019-06-15T11:23:58.907Z,3.27
2019-06-15T11:26:27.326Z,3.67
2019-06-15T11:28:55.755Z,3.10
2019-06-15T11:31:24.225Z,3.87
2019-06-15T11:33:52.643Z,3.23
2019-06-15T11:36:21.079Z,3.57
2019-06-15T11:38:50.012Z,3.17
2019-06-15T11:41:18.433Z,4.33
2019-06-15T11:43:46.870Z,3.00
2019-06-15T11:46:15.317Z,4.27
2019-06-15T11:48:43.732Z,3.50
2019-06-15T11:51:12.148Z,3.53
2019-06-15T11:53:40.600Z,3.50
2019-06-15T11:56:09.006Z,2.83
2019-06-15T11:58:37.428Z,3.93
2019-06-15T12:01:06.931Z,3.87
2019-06-15T12:03:35.379Z,4.00
2019-06-15T12:06:03.789Z,3.87
2019-06-15T12:08:32.235Z,3.67
2019-06-15T12:11:01.784Z,3.97
2019-06-15T12:13:30.172Z,3.87
2019-06-15T12:15:58.623Z,4.50
2019-06-15T12:18:27.058Z,4.07
2019-06-15T12:20:55.471Z,4.27
2019-06-15T12:23:23.920Z,4.07
2019-06-15T12:25:52.341Z,3.80
2019-06-15T12:28:20.790Z,3.30
2019-06-15T12:30:49.296Z,3.93
2019-06-15T12:33:18.123Z,4.20
2019-06-15T12:35:46.538Z,4.10
2019-06-15T12:38:14.967Z,2.53
2019-06-15T12:40:43.390Z,3.60
2019-06-15T12:43:11.803Z,3.50
2019-06-15T12:45:41.214Z,3.63
2019-06-15T12:48:09.641Z,2.87
2019-06-15T12:50:38.052Z,3.03
2019-06-15T12:53:06.521Z,3.10
2019-06-15T12:55:34.926Z,3.80
2019-06-15T12:58:03.385Z,2.40
2019-06-15T13:00:36.605Z,2.70
2019-06-15T13:03:05.105Z,3.80
2019-06-15T13:05:33.660Z,3.60
2019-06-15T13:08:02.171Z,2.53
2019-06-15T13:10:30.600Z,2.10
2019-06-15T13:12:59.023Z,2.90
2019-06-15T13:15:27.480Z,2.60
2019-06-15T13:17:55.902Z,4.40
2019-06-15T13:20:24.320Z,3.80
2019-06-15T13:22:52.780Z,3.50
2019-06-15T13:25:21.270Z,3.20
2019-06-15T13:27:49.685Z,2.80
2019-06-15T13:30:21.528Z,3.00
2019-06-15T13:32:50.461Z,2.33
2019-06-15T13:35:19.246Z,2.27
2019-06-15T13:37:47.676Z,2.73
2019-06-15T13:40:16.107Z,3.00
2019-06-15T13:42:44.527Z,2.50
2019-06-15T13:45:12.976Z,2.33
2019-06-15T13:47:41.401Z,2.93
2019-06-15T13:50:09.818Z,4.17
2019-06-15T13:52:38.571Z,3.00
2019-06-15T13:55:07.533Z,2.47
2019-06-15T13:57:35.958Z,2.70
2019-06-15T14:00:06.782Z,2.53
2019-06-15T14:02:35.196Z,2.53
2019-06-15T14:05:04.968Z,1.97
2019-06-15T14:07:33.411Z,2.80
2019-06-15T14:10:01.828Z,2.63
2019-06-15T14:12:30.274Z,3.37
2019-06-15T14:14:58.766Z,1.77
2019-06-15T14:17:27.230Z,2.00
2019-06-15T14:19:55.721Z,1.57
2019-06-15T14:22:24.178Z,1.20
2019-06-15T14:24:52.626Z,1.57
2019-06-15T14:27:21.052Z,1.90
2019-06-15T14:29:49.499Z,1.50
2019-06-15T14:32:17.996Z,1.70
2019-06-15T14:34:46.415Z,1.50
2019-06-15T14:37:14.866Z,1.50
2019-06-15T14:39:43.298Z,1.30
2019-06-15T14:42:11.710Z,2.30
2019-06-15T14:44:40.180Z,1.43
2019-06-15T14:47:08.627Z,1.87
2019-06-15T14:49:37.072Z,1.67
2019-06-15T14:52:05.514Z,1.60
2019-06-15T14:54:33.969Z,2.30
2019-06-15T14:57:02.372Z,2.00
2019-06-15T14:59:30.807Z,1.77
2019-06-15T15:02:09.836Z,2.47
2019-06-15T15:04:29.325Z,1.60
2019-06-15T15:06:57.780Z,1.70
2019-06-15T15:09:26.199Z,1.47
2019-06-15T15:11:55.502Z,1.17
2019-06-15T15:14:25.994Z,1.70
2019-06-15T15:16:54.011Z,1.40
2019-06-15T15:19:22.491Z,1.67
2019-06-15T15:21:50.955Z,2.00
2019-06-15T15:24:19.374Z,1.50
2019-06-15T15:26:47.791Z,1.70
2019-06-15T15:29:16.398Z,1.50
2019-06-15T15:31:46.647Z,1.40
2019-06-15T15:34:17.109Z,1.30
2019-06-15T15:36:46.218Z,1.93
2019-06-15T15:39:16.719Z,3.13
2019-06-15T15:41:47.050Z,2.50
2019-06-15T15:44:16.281Z,2.80
2019-06-15T15:46:46.181Z,3.07
2019-06-15T15:49:16.312Z,2.57
2019-06-15T15:51:47.137Z,1.80
2019-06-15T15:54:15.064Z,2.40
2019-06-15T15:56:43.483Z,2.77
2019-06-15T15:59:12.018Z,2.37
2019-06-15T16:01:40.425Z,2.13
2019-06-15T16:04:08.867Z,3.20
2019-06-15T16:06:37.295Z,2.57
2019-06-15T16:09:06.305Z,2.50
2019-06-15T16:11:36.898Z,2.33
2019-06-15T16:14:07.022Z,2.57
2019-06-15T16:16:36.495Z,2.57
2019-06-15T16:19:06.570Z,2.20
2019-06-15T16:21:36.700Z,1.70
2019-06-15T16:24:07.452Z,1.47
2019-06-15T16:26:37.567Z,1.90
2019-06-15T16:29:06.908Z,2.37
2019-06-15T16:31:37.422Z,2.47
2019-06-15T16:34:05.552Z,2.13
2019-06-15T16:36:36.325Z,1.80
2019-06-15T16:39:06.649Z,1.73
2019-06-15T16:41:36.443Z,2.30
2019-06-15T16:44:07.214Z,2.37
2019-06-15T16:46:36.899Z,2.13
2019-06-15T16:49:05.295Z,1.63
2019-06-15T16:51:35.963Z,1.80
2019-06-15T16:54:06.150Z,2.03
2019-06-15T16:56:35.959Z,1.70
2019-06-15T16:59:06.418Z,1.67
2019-06-15T17:01:34.116Z,2.07
2019-06-15T17:04:02.556Z,2.10
2019-06-15T17:06:30.972Z,2.07
2019-06-15T17:08:59.461Z,2.50
2019-06-15T17:11:27.877Z,2.27
2019-06-15T17:13:56.433Z,1.83
2019-06-15T17:16:26.070Z,1.77
2019-06-15T17:18:56.283Z,2.30
2019-06-15T17:21:26.090Z,1.40
2019-06-15T17:23:57.081Z,2.23
2019-06-15T17:26:26.031Z,1.97
2019-06-15T17:28:56.600Z,1.90
2019-06-15T17:31:46.550Z,1.30
2019-06-15T17:34:16.527Z,1.27
2019-06-15T17:36:44.215Z,1.80
2019-06-15T17:39:12.626Z,2.10
2019-06-15T17:41:41.388Z,1.83
2019-06-15T17:44:09.813Z,1.83
2019-06-15T17:46:38.253Z,1.93
2019-06-15T17:49:06.872Z,2.07
2019-06-15T17:51:36.761Z,1.93
2019-06-15T17:54:06.343Z,1.30
2019-06-15T17:56:36.645Z,1.23
2019-06-15T17:59:06.501Z,1.53
2019-06-15T18:01:36.462Z,2.17
2019-06-15T18:04:07.555Z,1.60
2019-06-15T18:06:36.015Z,1.50
2019-06-15T18:09:06.641Z,1.70
2019-06-15T18:11:37.398Z,1.97
2019-06-15T18:14:05.985Z,1.87
2019-06-15T18:16:36.802Z,1.33
2019-06-15T18:19:06.806Z,1.63
2019-06-15T18:21:40.284Z,1.30
2019-06-15T18:24:06.646Z,2.00
2019-06-15T18:26:36.501Z,1.60
2019-06-15T18:29:04.938Z,1.73
2019-06-15T18:31:36.301Z,1.37
2019-06-15T18:34:10.313Z,2.07
2019-06-15T18:36:36.440Z,2.63
2019-06-15T18:39:06.391Z,1.73
2019-06-15T18:41:37.054Z,2.13
2019-06-15T18:44:06.385Z,2.60
2019-06-15T18:46:36.770Z,1.73
2019-06-15T18:49:06.754Z,2.37
2019-06-15T18:51:35.005Z,2.30
2019-06-15T18:54:03.462Z,2.40
2019-06-15T18:56:31.908Z,2.03
2019-06-15T18:59:00.326Z,2.07
2019-06-15T19:01:28.746Z,2.40
2019-06-15T19:03:57.198Z,1.33
2019-06-15T19:06:26.462Z,1.20
2019-06-15T19:08:57.307Z,1.17
2019-06-15T19:11:27.181Z,1.03
2019-06-15T19:13:56.336Z,2.13
2019-06-15T19:16:24.949Z,1.90
2019-06-15T19:18:53.411Z,1.73
2019-06-15T19:21:21.810Z,2.17
2019-06-15T19:23:50.234Z,2.43
2019-06-15T19:26:18.708Z,1.30
2019-06-15T19:28:47.133Z,1.57
2019-06-15T19:31:15.557Z,1.03
2019-06-15T19:33:46.703Z,1.57
2019-06-15T19:36:14.058Z,1.33
2019-06-15T19:38:42.481Z,1.97
2019-06-15T19:41:10.927Z,1.30
2019-06-15T19:43:39.345Z,0.93
2019-06-15T19:46:07.766Z,0.97
2019-06-15T19:48:36.980Z,0.90
2019-06-15T19:51:05.548Z,0.90
2019-06-15T19:53:36.200Z,0.70
2019-06-15T19:56:06.642Z,0.90
2019-06-15T19:58:34.574Z,0.60
2019-06-15T20:01:02.998Z,0.67
2019-06-15T20:03:31.463Z,0.50
2019-06-15T20:05:59.902Z,0.80
2019-06-15T20:08:28.316Z,0.90
2019-06-15T20:10:56.888Z,1.00
2019-06-15T20:13:25.292Z,0.90
2019-06-15T20:15:53.717Z,0.53
2019-06-15T20:18:22.177Z,1.50
2019-06-15T20:20:50.618Z,0.80
2019-06-15T20:23:19.054Z,0.70
2019-06-15T20:25:47.515Z,0.70
2019-06-15T20:28:16.349Z,1.00
2019-06-15T20:30:46.256Z,0.60
2019-06-15T20:33:16.659Z,0.93
2019-06-15T20:35:47.127Z,1.47
2019-06-15T20:38:16.186Z,1.33
2019-06-15T20:40:47.339Z,0.87
2019-06-15T20:43:17.067Z,0.83
2019-06-15T20:45:47.128Z,0.90
2019-06-15T20:48:15.577Z,1.33
2019-06-15T20:50:44.007Z,0.97
2019-06-15T20:53:12.436Z,1.67
2019-06-15T20:55:40.888Z,1.40
2019-06-15T20:58:09.301Z,1.30
2019-06-15T21:00:37.717Z,2.00
2019-06-15T21:03:06.854Z,1.83
2019-06-15T21:05:40.953Z,1.70
2019-06-15T21:08:06.971Z,1.73
2019-06-15T21:10:37.294Z,1.63
2019-06-15T21:13:05.725Z,1.70
2019-06-15T21:15:37.379Z,1.90
2019-06-15T21:18:06.727Z,1.80
2019-06-15T21:20:36.312Z,1.80
2019-06-15T21:23:06.714Z,1.70
2019-06-15T21:25:35.068Z,2.10
2019-06-15T21:28:06.482Z,2.57
2019-06-15T21:30:36.637Z,3.10
2019-06-15T21:33:03.665Z,2.43
2019-06-15T21:35:46.136Z,2.73
2019-06-15T21:38:02.233Z,1.93
2019-06-15T21:40:30.673Z,2.87
2019-06-15T21:42:59.101Z,1.87
2019-06-15T21:45:27.518Z,1.80
2019-06-15T21:47:56.167Z,2.20
2019-06-15T21:50:26.796Z,1.80
2019-06-15T21:52:56.465Z,2.23
2019-06-15T21:55:26.883Z,2.30
2019-06-15T21:57:56.442Z,2.80
2019-06-15T22:00:57.041Z,2.70
2019-06-15T22:03:26.494Z,1.43
2019-06-15T22:06:02.929Z,1.20
2019-06-15T22:08:26.464Z,1.60
2019-06-15T22:10:55.025Z,1.13
2019-06-15T22:13:23.435Z,1.87
2019-06-15T22:15:51.884Z,1.53
2019-06-15T22:18:20.324Z,2.10
2019-06-15T22:20:48.736Z,1.70
2019-06-15T22:23:17.186Z,1.73
2019-06-15T22:25:46.397Z,1.67
2019-06-15T22:28:16.497Z,1.90
2019-06-15T22:30:46.262Z,1.90
2019-06-15T22:33:16.518Z,1.67
2019-06-15T22:35:47.466Z,1.60
2019-06-15T22:38:15.445Z,1.07
2019-06-15T22:40:43.859Z,1.63
2019-06-15T22:43:12.272Z,1.40
2019-06-15T22:45:40.748Z,1.47
2019-06-15T22:48:09.157Z,1.60
2019-06-15T22:50:37.581Z,1.80
2019-06-15T22:53:07.344Z,1.10
2019-06-15T22:55:36.904Z,1.00
2019-06-15T22:58:06.465Z,1.53
2019-06-15T23:00:37.409Z,1.77
2019-06-15T23:03:06.309Z,1.00
2019-06-15T23:05:35.843Z,1.53
2019-06-15T23:08:06.810Z,1.47
2019-06-15T23:10:36.671Z,2.00
2019-06-15T23:13:06.429Z,1.20
2019-06-15T23:15:37.115Z,1.70
2019-06-15T23:18:06.781Z,1.50
2019-06-15T23:20:36.863Z,1.17
2019-06-15T23:23:07.793Z,1.77
2019-06-15T23:25:36.482Z,1.70
2019-06-15T23:28:07.128Z,1.17
2019-06-15T23:30:36.488Z,2.03
2019-06-15T23:33:06.482Z,1.60
2019-06-15T23:35:36.849Z,1.40
2019-06-15T23:38:06.518Z,1.40
2019-06-15T23:40:36.023Z,1.70
2019-06-15T23:43:06.221Z,1.43
2019-06-15T23:45:36.103Z,1.17
2019-06-15T23:48:04.678Z,1.37
2019-06-15T23:50:33.083Z,1.67
2019-06-15T23:53:01.627Z,2.03
2019-06-15T23:55:30.072Z,1.40
2019-06-15T23:57:58.483Z,1.77
